createdAt,value
2023-03-24T00:01:25.738Z,7.47
2023-03-24T00:03:53.875Z,7.77
2023-03-24T00:06:23.517Z,7.67
2023-03-24T00:08:53.412Z,7.87
2023-03-24T00:11:21.627Z,7.83
2023-03-24T00:13:50.585Z,7.10
2023-03-24T00:16:21.974Z,7.63
2023-03-24T00:18:53.956Z,6.83
2023-03-24T00:21:24.750Z,6.37
2023-03-24T00:23:55.662Z,7.43
2023-03-24T00:26:25.529Z,7.13
2023-03-24T00:28:54.354Z,7.57
2023-03-24T00:31:22.557Z,6.17
2023-03-24T00:33:51.949Z,6.20
2023-03-24T00:36:23.219Z,6.07
2023-03-24T00:38:51.849Z,7.03
2023-03-24T00:41:21.461Z,6.03
2023-03-24T00:43:50.936Z,6.40
2023-03-24T00:46:29.209Z,6.90
2023-03-24T00:49:03.700Z,6.70
2023-03-24T00:51:34.220Z,6.40
2023-03-24T00:54:03.033Z,6.63
2023-03-24T00:56:33.039Z,6.20
2023-03-24T00:59:02.462Z,6.70
2023-03-24T01:01:35.337Z,6.83
2023-03-24T01:04:07.052Z,6.40
2023-03-24T01:06:37.528Z,6.73
2023-03-24T01:09:06.730Z,6.30
2023-03-24T01:11:40.175Z,6.40
2023-03-24T01:14:08.767Z,6.63
2023-03-24T01:16:36.852Z,6.63
2023-03-24T01:19:09.333Z,6.60
2023-03-24T01:21:38.205Z,6.53
2023-03-24T01:24:07.773Z,6.77
2023-03-24T01:26:36.138Z,6.80
2023-03-24T01:29:04.214Z,6.70
2023-03-24T01:31:32.263Z,6.93
2023-03-24T01:34:00.411Z,6.87
2023-03-24T01:36:29.941Z,6.73
2023-03-24T01:38:58.608Z,6.80
2023-03-24T01:41:28.942Z,6.73
2023-03-24T01:43:56.974Z,6.23
2023-03-24T01:46:26.639Z,6.37
2023-03-24T01:48:58.988Z,6.60
2023-03-24T01:51:35.211Z,6.40
2023-03-24T01:54:06.275Z,6.40
2023-03-24T01:56:38.137Z,6.00
2023-03-24T01:59:11.502Z,6.40
2023-03-24T02:01:40.031Z,6.00
2023-03-24T02:04:09.332Z,5.80
2023-03-24T02:06:44.127Z,6.83
2023-03-24T02:09:13.708Z,6.10
2023-03-24T02:11:43.007Z,6.50
2023-03-24T02:14:13.208Z,6.10
2023-03-24T02:17:14.159Z,6.23
2023-03-24T02:20:15.193Z,6.10
2023-03-24T02:23:29.189Z,6.27
2023-03-24T02:26:30.410Z,6.50
2023-03-24T02:29:17.985Z,5.73
2023-03-24T02:32:20.013Z,5.57
2023-03-24T02:35:13.976Z,5.73
2023-03-24T02:38:29.359Z,5.70
2023-03-24T02:41:05.856Z,5.30
2023-03-24T02:43:45.021Z,5.63
2023-03-24T02:46:22.243Z,5.80
2023-03-24T02:49:03.700Z,5.27
2023-03-24T02:51:40.154Z,4.87
2023-03-24T02:54:12.747Z,5.57
2023-03-24T02:56:47.902Z,5.37
2023-03-24T02:59:22.364Z,194.83
2023-03-24T03:01:57.745Z,193.57
2023-03-24T03:04:33.158Z,113.13
2023-03-24T03:07:06.619Z,38.40
2023-03-24T03:09:36.355Z,14.97
2023-03-24T03:12:08.689Z,34.40
2023-03-24T03:14:40.636Z,31.17
2023-03-24T03:17:14.584Z,8.67
2023-03-24T03:19:46.345Z,6.00
2023-03-24T03:22:19.632Z,4.60
2023-03-24T03:24:53.044Z,5.07
2023-03-24T03:27:27.387Z,4.77
2023-03-24T03:30:02.811Z,4.97
2023-03-24T03:32:34.691Z,4.70
2023-03-24T03:35:09.014Z,4.20
2023-03-24T03:37:47.370Z,5.00
2023-03-24T03:40:20.586Z,5.10
2023-03-24T03:42:51.510Z,4.70
2023-03-24T03:45:20.020Z,5.33
2023-03-24T03:47:48.542Z,5.73
2023-03-24T03:50:16.880Z,5.97
2023-03-24T03:52:45.431Z,5.47
2023-03-24T03:55:14.063Z,6.50
2023-03-24T03:57:42.817Z,6.50
2023-03-24T04:00:17.009Z,6.10
2023-03-24T04:03:05.490Z,6.90
2023-03-24T04:05:36.426Z,5.93
2023-03-24T04:08:26.368Z,5.40
2023-03-24T04:11:31.768Z,4.60
2023-03-24T04:14:10.772Z,4.73
2023-03-24T04:16:52.637Z,5.00
2023-03-24T04:19:36.135Z,4.83
2023-03-24T04:22:20.550Z,4.40
2023-03-24T04:24:54.766Z,5.30
2023-03-24T04:27:29.040Z,4.60
2023-03-24T04:30:08.259Z,4.83
2023-03-24T04:32:43.730Z,4.17
2023-03-24T04:35:14.409Z,4.53
2023-03-24T04:37:43.217Z,4.60
2023-03-24T04:40:14.978Z,4.20
2023-03-24T04:42:49.295Z,4.73
2023-03-24T04:45:18.465Z,4.70
2023-03-24T04:47:53.917Z,5.20
2023-03-24T04:50:31.523Z,4.33
2023-03-24T04:53:00.638Z,4.17
2023-03-24T04:55:40.915Z,4.30
2023-03-24T04:58:08.865Z,5.07
2023-03-24T05:00:37.472Z,4.47
2023-03-24T05:03:06.913Z,4.47
2023-03-24T05:05:34.877Z,4.10
2023-03-24T05:08:02.838Z,4.67
2023-03-24T05:10:31.169Z,5.07
2023-03-24T05:12:59.199Z,4.27
2023-03-24T05:15:27.244Z,4.83
2023-03-24T05:17:55.272Z,4.07
2023-03-24T05:20:24.986Z,4.30
2023-03-24T05:22:53.253Z,4.83
2023-03-24T05:25:21.812Z,4.50
2023-03-24T05:27:50.039Z,4.80
2023-03-24T05:30:20.314Z,5.10
2023-03-24T05:32:48.546Z,5.00
2023-03-24T05:35:16.885Z,4.40
2023-03-24T05:37:46.363Z,5.07
2023-03-24T05:40:15.846Z,4.70
2023-03-24T05:42:44.016Z,4.60
2023-03-24T05:45:13.077Z,4.83
2023-03-24T05:47:41.208Z,4.67
2023-03-24T05:50:09.470Z,4.53
2023-03-24T05:52:37.524Z,5.10
2023-03-24T05:55:07.732Z,4.50
2023-03-24T05:57:36.790Z,4.73
2023-03-24T06:00:08.083Z,4.70
2023-03-24T06:02:36.144Z,5.53
2023-03-24T06:05:05.070Z,5.57
2023-03-24T06:07:33.067Z,5.07
2023-03-24T06:10:03.144Z,5.07
2023-03-24T06:12:32.622Z,5.07
2023-03-24T06:15:00.937Z,4.80
2023-03-24T06:17:30.998Z,5.03
2023-03-24T06:20:05.111Z,5.47
2023-03-24T06:22:34.763Z,5.00
2023-03-24T06:25:05.212Z,5.30
2023-03-24T06:27:35.921Z,4.77
2023-03-24T06:30:04.735Z,4.30
2023-03-24T06:32:32.764Z,4.80
2023-03-24T06:35:01.142Z,4.60
2023-03-24T06:37:29.188Z,4.50
2023-03-24T06:39:57.223Z,4.83
2023-03-24T06:42:25.451Z,4.40
2023-03-24T06:44:54.888Z,4.53
2023-03-24T06:47:23.122Z,5.00
2023-03-24T06:49:51.086Z,4.30
2023-03-24T06:52:19.087Z,4.60
2023-03-24T06:54:47.016Z,4.50
2023-03-24T06:57:15.251Z,4.10
2023-03-24T06:59:43.302Z,4.40
2023-03-24T07:02:13.719Z,4.90
2023-03-24T07:04:41.672Z,3.90
2023-03-24T07:07:35.774Z,3.90
2023-03-24T07:09:57.602Z,3.93
2023-03-24T07:12:25.763Z,4.10
2023-03-24T07:14:53.781Z,4.27
2023-03-24T07:17:24.294Z,4.00
2023-03-24T07:19:53.319Z,4.30
2023-03-24T07:22:21.293Z,4.20
2023-03-24T07:24:49.261Z,4.90
2023-03-24T07:27:17.255Z,4.20
2023-03-24T07:29:45.247Z,4.30
2023-03-24T07:32:13.377Z,4.40
2023-03-24T07:34:43.980Z,3.60
2023-03-24T07:37:12.020Z,3.97
2023-03-24T07:39:39.948Z,3.50
2023-03-24T07:42:08.456Z,4.33
2023-03-24T07:44:37.468Z,3.73
2023-03-24T07:47:05.560Z,3.93
2023-03-24T07:49:33.534Z,4.10
2023-03-24T07:52:06.640Z,4.17
2023-03-24T07:54:34.856Z,4.03
2023-03-24T07:57:07.362Z,4.00
2023-03-24T07:59:36.941Z,3.60
2023-03-24T08:02:05.209Z,3.77
2023-03-24T08:04:33.603Z,3.70
2023-03-24T08:07:03.133Z,4.10
2023-03-24T08:09:31.406Z,3.50
2023-03-24T08:12:06.947Z,3.13
2023-03-24T08:14:41.759Z,3.60
2023-03-24T08:17:09.788Z,3.93
2023-03-24T08:19:45.409Z,3.70
2023-03-24T08:22:21.737Z,2.80
2023-03-24T08:24:49.684Z,3.00
2023-03-24T08:27:18.160Z,3.10
2023-03-24T08:29:46.599Z,3.03
2023-03-24T08:32:14.603Z,2.90
2023-03-24T08:34:42.550Z,2.87
2023-03-24T08:37:12.019Z,41.57
2023-03-24T08:39:41.437Z,3.20
2023-03-24T08:42:09.566Z,3.20
2023-03-24T08:44:37.587Z,2.80
2023-03-24T08:47:05.648Z,2.60
2023-03-24T08:49:33.645Z,2.83
2023-03-24T08:52:01.761Z,3.00
2023-03-24T08:54:29.753Z,2.60
2023-03-24T08:56:59.150Z,3.03
2023-03-24T08:59:27.123Z,2.80
2023-03-24T09:01:55.194Z,3.07
2023-03-24T09:04:23.257Z,3.03
2023-03-24T09:06:53.726Z,3.23
2023-03-24T09:09:21.741Z,3.10
2023-03-24T09:11:49.791Z,3.00
2023-03-24T09:14:19.121Z,2.60
2023-03-24T09:16:48.560Z,2.67
2023-03-24T09:19:16.679Z,2.90
2023-03-24T09:21:46.381Z,2.73
2023-03-24T09:24:14.360Z,3.67
2023-03-24T09:26:42.580Z,3.40
2023-03-24T09:29:10.647Z,2.80
2023-03-24T09:31:40.122Z,3.30
2023-03-24T09:34:08.144Z,3.70
2023-03-24T09:36:36.155Z,3.40
2023-03-24T09:39:04.274Z,2.60
2023-03-24T09:41:34.494Z,3.23
2023-03-24T09:44:08.593Z,2.80
2023-03-24T09:46:42.556Z,3.03
2023-03-24T09:49:14.870Z,2.80
2023-03-24T09:51:45.431Z,2.60
2023-03-24T09:54:20.584Z,2.23
2023-03-24T09:56:51.761Z,2.07
2023-03-24T09:59:21.944Z,2.50
2023-03-24T10:01:52.306Z,2.10
2023-03-24T10:04:22.591Z,2.10
2023-03-24T10:06:57.134Z,2.00
2023-03-24T10:09:27.312Z,2.23
2023-03-24T10:12:18.963Z,2.53
2023-03-24T10:14:57.043Z,1.97
2023-03-24T10:17:32.441Z,2.50
2023-03-24T10:20:11.434Z,2.30
2023-03-24T10:22:49.146Z,2.20
2023-03-24T10:25:23.125Z,1.97
2023-03-24T10:27:58.609Z,2.40
2023-03-24T10:30:30.056Z,2.30
2023-03-24T10:32:59.392Z,2.50
2023-03-24T10:35:34.745Z,2.30
2023-03-24T10:38:10.090Z,3.00
2023-03-24T10:40:38.413Z,2.67
2023-03-24T10:43:09.805Z,2.20
2023-03-24T10:45:40.945Z,2.40
2023-03-24T10:48:10.511Z,2.47
2023-03-24T10:50:44.236Z,2.30
2023-03-24T10:53:19.785Z,2.20
2023-03-24T10:55:49.120Z,2.57
2023-03-24T10:58:30.257Z,3.13
2023-03-24T11:01:01.192Z,2.70
2023-03-24T11:03:33.006Z,3.10
2023-03-24T11:06:03.117Z,2.97
2023-03-24T11:08:35.836Z,3.37
2023-03-24T11:11:15.943Z,2.77
2023-03-24T11:13:56.805Z,3.07
2023-03-24T11:16:30.111Z,2.90
2023-03-24T11:19:01.715Z,3.00
2023-03-24T11:21:31.513Z,2.47
2023-03-24T11:24:00.708Z,2.80
2023-03-24T11:26:33.187Z,2.90
2023-03-24T11:29:04.720Z,3.07
2023-03-24T11:31:38.297Z,2.97
2023-03-24T11:34:13.934Z,2.80
2023-03-24T11:36:48.531Z,2.40
2023-03-24T11:39:22.682Z,3.03
2023-03-24T11:42:17.585Z,2.83
2023-03-24T11:44:48.709Z,3.07
2023-03-24T11:47:24.378Z,2.80
2023-03-24T11:50:02.454Z,2.80
2023-03-24T11:52:34.825Z,3.03
2023-03-24T11:55:03.771Z,5.70
2023-03-24T11:57:47.273Z,4.17
2023-03-24T12:00:23.198Z,3.30
2023-03-24T12:03:14.720Z,2.93
2023-03-24T12:05:51.911Z,3.27
2023-03-24T12:08:41.782Z,2.80
2023-03-24T12:11:18.754Z,3.10
2023-03-24T12:13:50.454Z,2.93
2023-03-24T12:16:29.765Z,2.57
2023-03-24T12:19:18.416Z,3.13
2023-03-24T12:21:58.989Z,2.53
2023-03-24T12:24:42.541Z,3.17
2023-03-24T12:27:22.325Z,2.90
2023-03-24T12:30:00.594Z,3.03
2023-03-24T12:32:58.150Z,2.73
2023-03-24T12:35:52.360Z,2.80
2023-03-24T12:38:35.474Z,3.07
2023-03-24T12:41:25.124Z,2.70
2023-03-24T12:44:09.002Z,3.30
2023-03-24T12:46:48.416Z,2.77
2023-03-24T12:49:44.371Z,2.70
2023-03-24T12:52:26.750Z,2.33
2023-03-24T12:55:05.098Z,2.60
2023-03-24T12:57:37.744Z,3.00
2023-03-24T13:00:12.738Z,2.90
2023-03-24T13:02:46.810Z,2.97
2023-03-24T13:05:21.142Z,3.40
2023-03-24T13:07:54.320Z,3.20
2023-03-24T13:10:27.566Z,3.10
2023-03-24T13:13:00.916Z,2.97
2023-03-24T13:15:34.795Z,3.10
2023-03-24T13:18:19.353Z,3.03
2023-03-24T13:20:50.898Z,2.93
2023-03-24T13:23:41.794Z,3.27
2023-03-24T13:26:22.099Z,2.87
2023-03-24T13:29:01.692Z,2.57
2023-03-24T13:31:35.704Z,2.97
2023-03-24T13:34:07.551Z,3.00
2023-03-24T13:36:46.154Z,2.87
2023-03-24T13:39:17.435Z,3.27
2023-03-24T13:41:51.890Z,2.97
2023-03-24T13:44:22.906Z,2.80
2023-03-24T13:47:13.000Z,3.47
2023-03-24T13:49:42.341Z,3.30
2023-03-24T13:52:24.510Z,2.93
2023-03-24T13:54:57.949Z,2.77
2023-03-24T13:57:27.997Z,2.60
2023-03-24T14:00:08.125Z,2.50
2023-03-24T14:02:50.241Z,2.20
2023-03-24T14:05:58.640Z,1.97
2023-03-24T14:08:43.904Z,2.20
2023-03-24T14:11:45.580Z,2.43
2023-03-24T14:14:23.344Z,2.50
2023-03-24T14:16:53.509Z,2.10
2023-03-24T14:19:25.136Z,2.20
2023-03-24T14:22:05.125Z,2.00
2023-03-24T14:24:34.011Z,2.13
2023-03-24T14:27:23.895Z,3.53
2023-03-24T14:29:54.404Z,2.10
2023-03-24T14:32:23.862Z,2.60
2023-03-24T14:34:54.272Z,2.27
2023-03-24T14:37:23.106Z,2.10
2023-03-24T14:39:52.885Z,2.17
2023-03-24T14:43:11.468Z,1.50
2023-03-24T14:46:01.660Z,1.60
2023-03-24T14:48:43.656Z,1.87
2023-03-24T14:51:36.651Z,1.60
2023-03-24T14:54:07.099Z,1.80
2023-03-24T14:56:39.885Z,1.50
2023-03-24T14:59:16.048Z,1.63
2023-03-24T15:01:49.170Z,1.70
2023-03-24T15:04:17.389Z,1.67
2023-03-24T15:06:46.975Z,2.40
2023-03-24T15:09:17.602Z,1.70
2023-03-24T15:11:47.860Z,1.67
2023-03-24T15:14:22.459Z,1.90
2023-03-24T15:16:58.466Z,1.70
2023-03-24T15:19:28.783Z,1.50
2023-03-24T15:22:02.602Z,1.80
2023-03-24T15:24:37.308Z,1.80
2023-03-24T15:27:24.922Z,1.77
2023-03-24T15:29:57.726Z,1.80
2023-03-24T15:32:32.109Z,2.10
2023-03-24T15:35:05.733Z,2.23
2023-03-24T15:37:40.065Z,2.20
2023-03-24T15:40:33.825Z,2.43
2023-03-24T15:43:04.463Z,2.30
2023-03-24T15:45:35.004Z,2.00
2023-03-24T15:48:08.747Z,1.87
2023-03-24T15:50:38.426Z,2.40
2023-03-24T15:53:23.123Z,1.87
2023-03-24T15:56:05.312Z,2.03
2023-03-24T15:58:49.752Z,2.00
2023-03-24T16:01:22.134Z,2.07
2023-03-24T16:03:51.589Z,2.50
2023-03-24T16:06:31.057Z,1.87
2023-03-24T16:09:01.365Z,2.20
2023-03-24T16:11:30.554Z,2.20
2023-03-24T16:13:59.603Z,2.00
2023-03-24T16:16:30.249Z,2.47
2023-03-24T16:18:59.787Z,2.63
2023-03-24T16:21:29.959Z,2.00
2023-03-24T16:23:59.329Z,2.10
2023-03-24T16:26:31.315Z,1.67
2023-03-24T16:29:04.625Z,2.10
2023-03-24T16:31:35.618Z,1.80
2023-03-24T16:34:05.214Z,1.90
2023-03-24T16:36:33.154Z,1.63
2023-03-24T16:39:02.672Z,2.60
2023-03-24T16:41:30.660Z,2.10
2023-03-24T16:43:58.645Z,2.10
2023-03-24T16:46:33.026Z,2.10
2023-03-24T16:49:02.079Z,2.07
2023-03-24T16:51:31.461Z,2.13
2023-03-24T16:53:59.877Z,2.00
2023-03-24T16:56:27.946Z,1.90
2023-03-24T16:58:57.375Z,1.90
2023-03-24T17:01:30.150Z,2.00
2023-03-24T17:04:00.554Z,1.73
2023-03-24T17:06:33.724Z,1.97
2023-03-24T17:09:06.092Z,2.30
2023-03-24T17:11:37.240Z,1.70
2023-03-24T17:14:08.360Z,2.30
2023-03-24T17:16:38.380Z,2.10
2023-03-24T17:19:07.284Z,2.43
2023-03-24T17:21:39.886Z,1.90
2023-03-24T17:24:13.165Z,1.70
2023-03-24T17:26:42.828Z,2.17
2023-03-24T17:29:12.996Z,2.20
2023-03-24T17:31:43.073Z,2.20
2023-03-24T17:34:21.443Z,2.13
2023-03-24T17:36:51.942Z,1.83
2023-03-24T17:39:21.435Z,2.17
2023-03-24T17:41:52.261Z,2.50
2023-03-24T17:44:20.279Z,2.00
2023-03-24T17:46:48.254Z,2.30
2023-03-24T17:49:16.300Z,2.50
2023-03-24T17:51:44.332Z,2.87
2023-03-24T17:54:13.859Z,3.10
2023-03-24T17:56:41.921Z,2.20
2023-03-24T17:59:12.827Z,2.23
2023-03-24T18:01:40.825Z,2.30
2023-03-24T18:04:09.045Z,2.10
2023-03-24T18:06:38.525Z,2.00
2023-03-24T18:09:09.766Z,2.40
2023-03-24T18:11:39.293Z,2.37
2023-03-24T18:14:09.251Z,2.70
2023-03-24T18:16:39.282Z,2.57
2023-03-24T18:19:07.786Z,2.13
2023-03-24T18:21:35.897Z,2.77
2023-03-24T18:24:04.592Z,2.70
2023-03-24T18:26:33.689Z,2.60
2023-03-24T18:29:03.635Z,3.00
2023-03-24T18:31:31.713Z,3.10
2023-03-24T18:34:00.474Z,2.80
2023-03-24T18:36:29.185Z,2.67
2023-03-24T18:38:58.788Z,3.20
2023-03-24T18:41:28.387Z,3.20
2023-03-24T18:44:00.045Z,3.23
2023-03-24T18:46:29.612Z,3.20
2023-03-24T18:49:00.355Z,4.50
2023-03-24T18:51:28.747Z,4.77
2023-03-24T18:53:57.262Z,4.30
2023-03-24T18:56:25.636Z,4.03
2023-03-24T18:58:53.697Z,4.30
2023-03-24T19:01:22.951Z,4.23
2023-03-24T19:03:53.803Z,4.00
2023-03-24T19:06:21.838Z,3.60
2023-03-24T19:08:53.102Z,3.70
2023-03-24T19:11:21.233Z,3.13
2023-03-24T19:13:50.854Z,3.00
2023-03-24T19:16:22.154Z,3.70
2023-03-24T19:18:58.010Z,2.80
2023-03-24T19:21:27.668Z,2.90
2023-03-24T19:23:57.099Z,3.10
2023-03-24T19:26:26.192Z,3.03
2023-03-24T19:28:54.298Z,3.30
2023-03-24T19:31:25.205Z,3.23
2023-03-24T19:33:55.082Z,3.17
2023-03-24T19:36:23.163Z,3.63
2023-03-24T19:38:51.552Z,4.50
2023-03-24T19:41:19.550Z,5.03
2023-03-24T19:43:47.477Z,6.37
2023-03-24T19:46:16.574Z,3.67
2023-03-24T19:48:44.578Z,4.17
2023-03-24T19:51:14.362Z,3.93
2023-03-24T19:53:42.364Z,4.20
2023-03-24T19:56:10.826Z,4.47
2023-03-24T19:58:38.887Z,4.57
2023-03-24T20:01:06.997Z,4.73
2023-03-24T20:03:36.568Z,6.70
2023-03-24T20:06:08.106Z,4.57
2023-03-24T20:08:37.524Z,3.77
2023-03-24T20:11:09.003Z,3.27
2023-03-24T20:13:37.116Z,3.57
2023-03-24T20:16:05.733Z,3.97
2023-03-24T20:18:34.341Z,4.13
2023-03-24T20:21:02.775Z,8.47
2023-03-24T20:23:31.025Z,14.93
2023-03-24T20:26:01.151Z,47.47
2023-03-24T20:28:30.082Z,37.70
2023-03-24T20:31:01.378Z,25.47
2023-03-24T20:33:29.729Z,4.77
2023-03-24T20:35:58.907Z,4.73
2023-03-24T20:38:27.623Z,18.50
2023-03-24T20:41:00.729Z,29.77
2023-03-24T20:43:29.641Z,14.70
2023-03-24T20:45:58.436Z,22.03
2023-03-24T20:48:26.610Z,15.80
2023-03-24T20:50:55.184Z,20.50
2023-03-24T20:53:24.957Z,8.47
2023-03-24T20:56:01.929Z,6.50
2023-03-24T20:58:30.843Z,20.20
2023-03-24T21:00:59.082Z,14.53
2023-03-24T21:03:27.636Z,12.40
2023-03-24T21:05:55.696Z,19.70
2023-03-24T21:08:23.844Z,9.17
2023-03-24T21:10:56.246Z,6.80
2023-03-24T21:13:37.032Z,5.27
2023-03-24T21:16:08.112Z,12.93
2023-03-24T21:18:40.236Z,18.07
2023-03-24T21:21:12.591Z,4.90
2023-03-24T21:23:42.155Z,13.90
2023-03-24T21:26:14.424Z,12.50
2023-03-24T21:28:44.591Z,5.40
2023-03-24T21:31:15.885Z,4.80
2023-03-24T21:33:44.698Z,4.83
2023-03-24T21:36:13.752Z,20.97
2023-03-24T21:38:41.882Z,12.83
2023-03-24T21:41:11.124Z,32.37
2023-03-24T21:43:40.541Z,29.50
2023-03-24T21:46:15.057Z,7.27
2023-03-24T21:48:50.339Z,6.90
2023-03-24T21:51:20.395Z,32.90
2023-03-24T21:53:48.811Z,12.43
2023-03-24T21:56:17.254Z,13.70
2023-03-24T21:58:46.474Z,6.13
2023-03-24T22:01:16.200Z,12.80
2023-03-24T22:03:47.426Z,4.60
2023-03-24T22:06:15.726Z,10.43
2023-03-24T22:08:44.608Z,11.77
2023-03-24T22:11:15.431Z,10.97
2023-03-24T22:13:44.696Z,34.40
2023-03-24T22:16:12.856Z,7.83
2023-03-24T22:18:42.538Z,6.57
2023-03-24T22:21:11.751Z,8.43
2023-03-24T22:23:42.856Z,6.67
2023-03-24T22:26:16.773Z,7.53
2023-03-24T22:28:45.388Z,6.97
2023-03-24T22:31:16.244Z,8.17
2023-03-24T22:33:47.548Z,6.43
2023-03-24T22:36:15.588Z,6.70
2023-03-24T22:38:43.569Z,6.77
2023-03-24T22:41:13.378Z,11.80
2023-03-24T22:43:41.870Z,7.40
2023-03-24T22:46:10.479Z,7.07
2023-03-24T22:48:39.766Z,7.30
2023-03-24T22:51:09.892Z,8.23
2023-03-24T22:53:38.010Z,7.60
2023-03-24T22:56:09.144Z,8.00
2023-03-24T22:58:37.165Z,7.43
2023-03-24T23:01:06.235Z,8.53
2023-03-24T23:03:34.890Z,7.87
2023-03-24T23:06:04.049Z,7.37
2023-03-24T23:08:37.553Z,7.63
2023-03-24T23:11:07.727Z,7.67
2023-03-24T23:13:36.520Z,7.20
2023-03-24T23:16:04.752Z,7.60
2023-03-24T23:18:33.089Z,7.13
2023-03-24T23:21:07.259Z,7.37
2023-03-24T23:23:37.992Z,7.63
2023-03-24T23:26:06.814Z,9.63
2023-03-24T23:28:35.472Z,8.77
2023-03-24T23:31:03.562Z,9.77
2023-03-24T23:33:31.564Z,9.43
2023-03-24T23:36:01.842Z,7.33
2023-03-24T23:38:29.960Z,6.77
2023-03-24T23:40:59.302Z,8.90
2023-03-24T23:43:27.315Z,13.27
2023-03-24T23:45:56.276Z,8.20
2023-03-24T23:48:24.679Z,6.93
2023-03-24T23:50:57.116Z,7.37
2023-03-24T23:53:25.806Z,7.43
2023-03-24T23:55:57.023Z,6.60
2023-03-24T23:58:27.128Z,7.23
